sensor_id;sensor_type;location;lat;lon;timestamp;P1;durP1;ratioP1;P2;durP2;ratioP2
29254;SDS011;16277;48.890;2.306;2022-09-14T00:03:31;3.83;;;2.13;;
29254;SDS011;16277;48.890;2.306;2022-09-14T00:18:35;1.90;;;1.80;;
29254;SDS011;16277;48.890;2.306;2022-09-14T00:33:41;3.63;;;2.33;;
29254;SDS011;16277;48.890;2.306;2022-09-14T00:48:46;5.90;;;2.33;;
29254;SDS011;16277;48.890;2.306;2022-09-14T01:03:51;5.30;;;3.03;;
29254;SDS011;16277;48.890;2.306;2022-09-14T01:18:56;3.00;;;2.67;;
29254;SDS011;16277;48.890;2.306;2022-09-14T01:34:04;3.03;;;2.03;;
29254;SDS011;16277;48.890;2.306;2022-09-14T01:49:14;3.30;;;2.23;;
29254;SDS011;16277;48.890;2.306;2022-09-14T02:04:21;4.23;;;1.80;;
29254;SDS011;16277;48.890;2.306;2022-09-14T02:19:35;5.03;;;1.93;;
29254;SDS011;16277;48.890;2.306;2022-09-14T02:34:45;7.67;;;2.17;;
29254;SDS011;16277;48.890;2.306;2022-09-14T02:49:58;5.77;;;2.47;;
29254;SDS011;16277;48.890;2.306;2022-09-14T03:35:18;5.60;;;2.33;;
29254;SDS011;16277;48.890;2.306;2022-09-14T03:50:23;6.73;;;2.37;;
29254;SDS011;16277;48.890;2.306;2022-09-14T04:05:27;3.33;;;1.97;;
29254;SDS011;16277;48.890;2.306;2022-09-14T04:20:31;4.00;;;2.23;;
29254;SDS011;16277;48.890;2.306;2022-09-14T04:35:36;11.60;;;2.30;;
29254;SDS011;16277;48.890;2.306;2022-09-14T04:50:40;7.27;;;2.87;;
29254;SDS011;16277;48.890;2.306;2022-09-14T05:05:45;4.07;;;2.33;;
29254;SDS011;16277;48.890;2.306;2022-09-14T05:20:49;2.40;;;2.07;;
29254;SDS011;16277;48.890;2.306;2022-09-14T05:35:58;3.93;;;2.33;;
29254;SDS011;16277;48.890;2.306;2022-09-14T05:51:04;5.60;;;2.87;;
29254;SDS011;16277;48.890;2.306;2022-09-14T06:06:11;4.63;;;3.27;;
29254;SDS011;16277;48.890;2.306;2022-09-14T06:21:17;10.73;;;3.63;;
29254;SDS011;16277;48.890;2.306;2022-09-14T06:36:23;4.13;;;2.67;;
29254;SDS011;16277;48.890;2.306;2022-09-14T06:51:30;6.50;;;3.50;;
29254;SDS011;16277;48.890;2.306;2022-09-14T07:06:39;6.93;;;4.17;;
29254;SDS011;16277;48.890;2.306;2022-09-14T07:21:44;4.53;;;3.60;;
29254;SDS011;16277;48.890;2.306;2022-09-14T07:36:50;11.03;;;3.57;;
29254;SDS011;16277;48.890;2.306;2022-09-14T07:51:54;19.23;;;4.63;;
29254;SDS011;16277;48.890;2.306;2022-09-14T08:06:59;19.77;;;4.50;;
29254;SDS011;16277;48.890;2.306;2022-09-14T08:22:03;16.63;;;6.07;;
29254;SDS011;16277;48.890;2.306;2022-09-14T08:37:08;7.43;;;3.77;;
29254;SDS011;16277;48.890;2.306;2022-09-14T08:52:14;8.13;;;3.40;;
29254;SDS011;16277;48.890;2.306;2022-09-14T09:07:28;11.13;;;5.50;;
29254;SDS011;16277;48.890;2.306;2022-09-14T09:22:40;20.83;;;3.90;;
29254;SDS011;16277;48.890;2.306;2022-09-14T09:37:46;5.63;;;3.10;;
29254;SDS011;16277;48.890;2.306;2022-09-14T09:52:51;4.57;;;3.50;;
29254;SDS011;16277;48.890;2.306;2022-09-14T10:07:57;4.10;;;2.47;;
29254;SDS011;16277;48.890;2.306;2022-09-14T10:38:31;2.17;;;2.07;;
29254;SDS011;16277;48.890;2.306;2022-09-14T10:53:42;15.27;;;2.17;;
29254;SDS011;16277;48.890;2.306;2022-09-14T11:08:54;5.63;;;1.43;;
29254;SDS011;16277;48.890;2.306;2022-09-14T11:24:10;1.30;;;1.20;;
29254;SDS011;16277;48.890;2.306;2022-09-14T11:39:21;7.97;;;1.70;;
29254;SDS011;16277;48.890;2.306;2022-09-14T11:54:28;24.80;;;2.63;;
29254;SDS011;16277;48.890;2.306;2022-09-14T12:09:40;3.53;;;3.20;;
29254;SDS011;16277;48.890;2.306;2022-09-14T12:24:46;1.73;;;1.63;;
29254;SDS011;16277;48.890;2.306;2022-09-14T12:55:44;4.33;;;2.07;;
29254;SDS011;16277;48.890;2.306;2022-09-14T13:10:55;14.20;;;2.03;;
29254;SDS011;16277;48.890;2.306;2022-09-14T13:25:59;7.03;;;1.60;;
29254;SDS011;16277;48.890;2.306;2022-09-14T13:41:13;8.63;;;1.47;;
29254;SDS011;16277;48.890;2.306;2022-09-14T13:56:23;1.07;;;0.83;;
29254;SDS011;16277;48.890;2.306;2022-09-14T14:11:33;2.83;;;0.93;;
29254;SDS011;16277;48.890;2.306;2022-09-14T14:26:40;0.67;;;0.67;;
29254;SDS011;16277;48.890;2.306;2022-09-14T14:41:51;12.50;;;0.97;;
29254;SDS011;16277;48.890;2.306;2022-09-14T14:56:55;0.80;;;0.77;;
29254;SDS011;16277;48.890;2.306;2022-09-14T15:12:00;1.70;;;0.60;;
29254;SDS011;16277;48.890;2.306;2022-09-14T15:27:05;2.60;;;0.70;;
29254;SDS011;16277;48.890;2.306;2022-09-14T15:42:09;1.60;;;0.60;;
29254;SDS011;16277;48.890;2.306;2022-09-14T15:57:14;5.00;;;0.87;;
29254;SDS011;16277;48.890;2.306;2022-09-14T16:12:18;0.93;;;0.83;;
29254;SDS011;16277;48.890;2.306;2022-09-14T16:27:22;3.03;;;1.00;;
29254;SDS011;16277;48.890;2.306;2022-09-14T16:42:27;5.63;;;1.07;;
29254;SDS011;16277;48.890;2.306;2022-09-14T16:57:31;2.57;;;0.80;;
29254;SDS011;16277;48.890;2.306;2022-09-14T17:12:36;1.30;;;1.20;;
29254;SDS011;16277;48.890;2.306;2022-09-14T17:27:40;3.13;;;1.10;;
29254;SDS011;16277;48.890;2.306;2022-09-14T17:42:45;2.23;;;1.00;;
29254;SDS011;16277;48.890;2.306;2022-09-14T17:57:49;3.60;;;1.07;;
29254;SDS011;16277;48.890;2.306;2022-09-14T18:12:53;1.97;;;1.87;;
29254;SDS011;16277;48.890;2.306;2022-09-14T18:27:58;1.93;;;1.73;;
29254;SDS011;16277;48.890;2.306;2022-09-14T18:43:02;4.87;;;2.80;;
29254;SDS011;16277;48.890;2.306;2022-09-14T18:58:06;2.03;;;1.93;;
29254;SDS011;16277;48.890;2.306;2022-09-14T19:13:12;3.37;;;3.10;;
29254;SDS011;16277;48.890;2.306;2022-09-14T19:28:16;1.83;;;1.73;;
29254;SDS011;16277;48.890;2.306;2022-09-14T19:43:21;6.10;;;3.53;;
29254;SDS011;16277;48.890;2.306;2022-09-14T19:58:25;4.90;;;4.60;;
29254;SDS011;16277;48.890;2.306;2022-09-14T20:13:30;10.07;;;9.10;;
29254;SDS011;16277;48.890;2.306;2022-09-14T20:28:35;10.47;;;9.43;;
29254;SDS011;16277;48.890;2.306;2022-09-14T20:43:40;13.57;;;8.47;;
29254;SDS011;16277;48.890;2.306;2022-09-14T20:58:48;10.07;;;8.10;;
29254;SDS011;16277;48.890;2.306;2022-09-14T21:13:56;7.23;;;7.00;;
29254;SDS011;16277;48.890;2.306;2022-09-14T21:29:01;9.57;;;9.03;;
29254;SDS011;16277;48.890;2.306;2022-09-14T21:44:07;9.77;;;8.60;;
29254;SDS011;16277;48.890;2.306;2022-09-14T21:59:12;6.07;;;5.87;;
29254;SDS011;16277;48.890;2.306;2022-09-14T22:14:19;3.53;;;3.43;;
29254;SDS011;16277;48.890;2.306;2022-09-14T22:29:24;3.57;;;3.47;;
29254;SDS011;16277;48.890;2.306;2022-09-14T22:44:28;3.77;;;3.67;;
29254;SDS011;16277;48.890;2.306;2022-09-14T22:59:33;2.57;;;2.57;;
29254;SDS011;16277;48.890;2.306;2022-09-14T23:14:37;2.47;;;2.30;;
29254;SDS011;16277;48.890;2.306;2022-09-14T23:29:41;2.70;;;2.60;;
29254;SDS011;16277;48.890;2.306;2022-09-14T23:44:46;2.10;;;1.90;;
29254;SDS011;16277;48.890;2.306;2022-09-14T23:59:50;1.10;;;1.10;;
